createdAt,value
2022-12-08T00:01:40.961Z,61.13
2022-12-08T00:04:09.871Z,61.34
2022-12-08T00:06:58.512Z,61.03
2022-12-08T00:09:37.903Z,61.45
2022-12-08T00:12:09.892Z,61.38
2022-12-08T00:14:39.805Z,61.42
2022-12-08T00:17:10.109Z,61.21
2022-12-08T00:19:39.224Z,61.53
2022-12-08T00:22:10.257Z,61.11
2022-12-08T00:24:40.523Z,61.46
2022-12-08T00:27:09.866Z,61.05
2022-12-08T00:29:38.259Z,61.53
2022-12-08T00:32:07.695Z,61.56
2022-12-08T00:34:36.349Z,61.28
2022-12-08T00:37:04.803Z,61.46
2022-12-08T00:39:34.771Z,61.40
2022-12-08T00:42:15.935Z,61.93
2022-12-08T00:44:45.848Z,61.98
2022-12-08T00:47:15.422Z,61.60
2022-12-08T00:49:43.881Z,61.98
2022-12-08T00:52:13.105Z,62.05
2022-12-08T00:54:42.934Z,61.40
2022-12-08T00:57:11.705Z,62.11
2022-12-08T00:59:40.140Z,62.54
2022-12-08T01:02:08.475Z,62.75
2022-12-08T01:04:36.800Z,62.94
2022-12-08T01:07:05.222Z,62.78
2022-12-08T01:09:33.909Z,62.98
2022-12-08T01:12:03.697Z,62.99
2022-12-08T01:14:32.096Z,62.98
2022-12-08T01:17:00.639Z,62.97
2022-12-08T01:19:29.032Z,62.81
2022-12-08T01:21:57.343Z,62.59
2022-12-08T01:24:25.921Z,62.88
2022-12-08T01:26:54.372Z,63.25
2022-12-08T01:29:24.715Z,63.18
2022-12-08T01:31:53.440Z,63.16
2022-12-08T01:34:21.768Z,63.35
2022-12-08T01:36:50.088Z,62.93
2022-12-08T01:39:19.993Z,62.74
2022-12-08T01:41:49.230Z,62.93
2022-12-08T01:44:54.765Z,63.13
2022-12-08T01:47:26.194Z,63.05
2022-12-08T01:49:54.648Z,63.32
2022-12-08T01:52:27.712Z,63.69
2022-12-08T01:54:59.674Z,63.77
2022-12-08T01:57:31.353Z,63.74
2022-12-08T02:00:04.240Z,63.78
2022-12-08T02:02:40.791Z,63.99
2022-12-08T02:05:10.974Z,63.81
2022-12-08T02:07:39.578Z,63.68
2022-12-08T02:10:09.103Z,63.80
2022-12-08T02:12:37.523Z,63.85
2022-12-08T02:15:08.460Z,63.68
2022-12-08T02:17:50.837Z,63.89
2022-12-08T02:20:26.970Z,63.81
2022-12-08T02:23:03.416Z,63.79
2022-12-08T02:25:43.877Z,63.87
2022-12-08T02:28:38.819Z,63.85
2022-12-08T02:31:17.587Z,63.54
2022-12-08T02:34:14.288Z,63.66
2022-12-08T02:36:51.426Z,63.92
2022-12-08T02:39:29.771Z,64.08
2022-12-08T02:42:08.311Z,64.10
2022-12-08T02:44:43.049Z,64.30
2022-12-08T02:47:15.516Z,63.76
2022-12-08T02:49:45.687Z,63.63
2022-12-08T02:52:43.423Z,63.34
2022-12-08T02:55:20.092Z,63.08
2022-12-08T02:58:21.792Z,63.25
2022-12-08T03:01:04.070Z,63.76
2022-12-08T03:03:40.755Z,62.79
2022-12-08T03:06:19.644Z,63.18
2022-12-08T03:08:56.783Z,63.12
2022-12-08T03:11:31.881Z,63.61
2022-12-08T03:14:04.084Z,63.50
2022-12-08T03:16:34.963Z,62.96
2022-12-08T03:19:12.076Z,62.67
2022-12-08T03:21:43.135Z,62.88
2022-12-08T03:24:12.458Z,62.95
2022-12-08T03:26:47.781Z,63.14
2022-12-08T03:29:16.633Z,62.91
2022-12-08T03:31:50.973Z,63.11
2022-12-08T03:34:20.212Z,63.35
2022-12-08T03:36:49.953Z,63.15
2022-12-08T03:39:18.405Z,63.25
2022-12-08T03:41:47.917Z,63.64
2022-12-08T03:44:16.481Z,63.79
2022-12-08T03:46:45.960Z,63.77
2022-12-08T03:49:14.326Z,63.68
2022-12-08T03:51:42.744Z,63.59
2022-12-08T03:54:12.567Z,64.15
2022-12-08T03:56:41.272Z,64.43
2022-12-08T03:59:10.402Z,64.23
2022-12-08T04:01:38.989Z,64.44
2022-12-08T04:04:07.496Z,64.49
2022-12-08T04:06:35.895Z,64.46
2022-12-08T04:09:04.754Z,63.96
2022-12-08T04:11:34.855Z,64.23
2022-12-08T04:14:03.502Z,64.29
2022-12-08T04:16:31.976Z,64.39
2022-12-08T04:19:00.545Z,64.34
2022-12-08T04:21:29.055Z,64.20
2022-12-08T04:24:01.088Z,64.22
2022-12-08T04:26:30.364Z,64.28
2022-12-08T04:29:00.256Z,64.22
2022-12-08T04:31:28.874Z,64.12
2022-12-08T04:33:57.421Z,64.21
2022-12-08T04:36:25.887Z,64.07
2022-12-08T04:38:54.300Z,64.15
2022-12-08T04:41:22.765Z,64.06
2022-12-08T04:43:51.377Z,63.93
2022-12-08T04:46:21.242Z,63.96
2022-12-08T04:48:49.613Z,63.78
2022-12-08T04:51:19.340Z,63.61
2022-12-08T04:53:48.857Z,63.80
2022-12-08T04:56:19.826Z,63.65
2022-12-08T04:58:48.266Z,63.44
2022-12-08T05:01:16.668Z,63.66
2022-12-08T05:03:46.756Z,63.83
2022-12-08T05:06:16.148Z,63.90
2022-12-08T05:08:45.196Z,63.93
2022-12-08T05:11:15.312Z,64.19
2022-12-08T05:13:43.828Z,64.13
2022-12-08T05:16:14.835Z,64.06
2022-12-08T05:18:44.264Z,64.07
2022-12-08T05:21:13.994Z,64.05
2022-12-08T05:23:42.376Z,64.35
2022-12-08T05:26:10.759Z,64.21
2022-12-08T05:28:42.394Z,64.14
2022-12-08T05:31:11.573Z,64.16
2022-12-08T05:33:40.039Z,64.39
2022-12-08T05:36:09.075Z,64.35
2022-12-08T05:38:39.005Z,64.15
2022-12-08T05:41:08.276Z,64.23
2022-12-08T05:43:36.620Z,64.16
2022-12-08T05:46:05.154Z,63.67
2022-12-08T05:48:33.857Z,63.59
2022-12-08T05:51:02.364Z,63.63
2022-12-08T05:53:30.764Z,63.61
2022-12-08T05:56:00.557Z,63.68
2022-12-08T05:58:28.929Z,63.10
2022-12-08T06:00:57.235Z,62.62
2022-12-08T06:03:25.708Z,61.74
2022-12-08T06:05:54.115Z,62.36
2022-12-08T06:08:22.527Z,62.81
2022-12-08T06:10:51.053Z,62.67
2022-12-08T06:13:20.877Z,62.41
2022-12-08T06:15:49.233Z,62.77
2022-12-08T06:18:17.567Z,62.56
2022-12-08T06:20:45.952Z,62.61
2022-12-08T06:23:14.481Z,62.66
2022-12-08T06:25:42.919Z,62.59
2022-12-08T06:28:11.229Z,62.55
2022-12-08T06:30:40.992Z,62.76
2022-12-08T06:33:09.387Z,61.97
2022-12-08T06:35:38.738Z,62.26
2022-12-08T06:38:07.113Z,62.07
2022-12-08T06:40:35.418Z,61.83
2022-12-08T06:43:03.827Z,62.17
2022-12-08T06:45:32.364Z,62.26
2022-12-08T06:48:02.934Z,62.07
2022-12-08T06:50:32.754Z,62.06
2022-12-08T06:53:05.256Z,62.34
2022-12-08T06:58:23.403Z,62.59
2022-12-08T07:00:51.968Z,62.56
2022-12-08T07:03:21.807Z,62.56
2022-12-08T07:05:50.182Z,62.07
2022-12-08T07:08:18.622Z,62.04
2022-12-08T07:10:46.913Z,61.82
2022-12-08T07:13:15.233Z,62.50
2022-12-08T07:15:43.584Z,62.56
2022-12-08T07:18:11.940Z,62.19
2022-12-08T07:20:41.734Z,62.42
2022-12-08T07:23:10.041Z,62.54
2022-12-08T07:25:38.461Z,62.37
2022-12-08T07:28:11.394Z,62.35
2022-12-08T07:30:40.464Z,62.42
2022-12-08T07:33:09.256Z,61.66
2022-12-08T07:35:38.159Z,61.66
2022-12-08T07:38:12.119Z,62.01
2022-12-08T07:40:40.794Z,62.02
2022-12-08T07:43:09.171Z,62.22
2022-12-08T07:45:37.465Z,62.45
2022-12-08T07:48:06.760Z,62.24
2022-12-08T07:50:35.141Z,62.40
2022-12-08T07:53:03.588Z,62.40
2022-12-08T07:55:34.080Z,62.55
2022-12-08T07:58:02.469Z,61.77
2022-12-08T08:00:30.957Z,61.86
2022-12-08T08:02:59.604Z,61.74
2022-12-08T08:05:28.183Z,61.10
2022-12-08T08:07:56.562Z,61.40
2022-12-08T08:10:25.031Z,61.58
2022-12-08T08:12:54.905Z,61.68
2022-12-08T08:15:23.300Z,61.86
2022-12-08T08:17:52.733Z,61.79
2022-12-08T08:20:22.121Z,62.05
2022-12-08T08:22:52.275Z,61.49
2022-12-08T08:25:23.201Z,61.61
2022-12-08T08:27:51.788Z,61.95
2022-12-08T08:30:21.890Z,61.87
2022-12-08T08:32:51.181Z,61.49
2022-12-08T08:35:20.052Z,61.93
2022-12-08T08:37:49.547Z,61.73
2022-12-08T08:40:18.647Z,61.85
2022-12-08T08:42:46.957Z,62.03
2022-12-08T08:45:15.304Z,61.54
2022-12-08T08:47:45.953Z,61.28
2022-12-08T08:50:14.425Z,61.45
2022-12-08T08:52:42.747Z,61.22
2022-12-08T08:55:11.472Z,61.42
2022-12-08T08:57:40.453Z,61.12
2022-12-08T09:00:10.875Z,61.25
2022-12-08T09:02:39.579Z,60.66
2022-12-08T09:05:10.224Z,60.01
2022-12-08T09:07:38.689Z,60.38
2022-12-08T09:10:08.967Z,60.08
2022-12-08T09:12:37.441Z,60.32
2022-12-08T09:15:06.607Z,60.20
2022-12-08T09:17:34.998Z,60.38
2022-12-08T09:20:03.814Z,60.23
2022-12-08T09:22:33.946Z,60.35
2022-12-08T09:25:02.263Z,60.39
2022-12-08T09:27:30.707Z,60.66
2022-12-08T09:29:59.091Z,60.65
2022-12-08T09:32:27.649Z,60.62
2022-12-08T09:34:56.220Z,60.78
2022-12-08T09:37:24.527Z,60.53
2022-12-08T09:39:54.406Z,60.39
2022-12-08T09:42:35.524Z,60.70
2022-12-08T09:45:07.477Z,60.29
2022-12-08T09:47:41.251Z,60.29
2022-12-08T09:50:14.317Z,60.58
2022-12-08T09:52:46.612Z,60.57
2022-12-08T09:55:23.884Z,60.48
2022-12-08T09:58:02.044Z,60.69
2022-12-08T10:00:30.558Z,60.85
2022-12-08T10:03:00.190Z,60.92
2022-12-08T10:05:33.700Z,60.78
2022-12-08T10:08:10.034Z,60.90
2022-12-08T10:10:44.767Z,60.78
2022-12-08T10:13:21.091Z,60.91
2022-12-08T10:15:59.023Z,60.97
2022-12-08T10:18:30.544Z,61.25
2022-12-08T10:21:06.543Z,61.07
2022-12-08T10:23:37.996Z,60.65
2022-12-08T10:26:12.735Z,60.65
2022-12-08T10:28:44.827Z,60.59
2022-12-08T10:31:23.778Z,60.77
2022-12-08T10:33:59.346Z,61.02
2022-12-08T10:36:47.409Z,60.87
2022-12-08T10:39:33.106Z,60.74
2022-12-08T10:42:10.456Z,61.06
2022-12-08T10:44:51.636Z,61.19
2022-12-08T10:47:23.287Z,60.66
2022-12-08T10:50:08.595Z,60.21
2022-12-08T10:52:40.437Z,60.26
2022-12-08T10:55:17.014Z,60.57
2022-12-08T10:57:49.130Z,60.51
2022-12-08T11:00:19.788Z,60.24
2022-12-08T11:03:00.244Z,59.88
2022-12-08T11:05:33.936Z,60.53
2022-12-08T11:08:03.158Z,60.77
2022-12-08T11:10:36.946Z,60.51
2022-12-08T11:13:13.001Z,60.52
2022-12-08T11:15:42.344Z,60.60
2022-12-08T11:18:23.702Z,60.41
2022-12-08T11:21:02.537Z,60.43
2022-12-08T11:23:32.374Z,60.05
2022-12-08T11:26:07.429Z,60.08
2022-12-08T11:28:37.800Z,60.39
2022-12-08T11:31:14.260Z,60.61
2022-12-08T11:33:44.314Z,60.53
2022-12-08T11:36:16.911Z,60.56
2022-12-08T11:38:48.841Z,60.62
2022-12-08T11:41:20.381Z,59.72
2022-12-08T11:43:55.574Z,59.70
2022-12-08T11:46:27.470Z,59.79
2022-12-08T11:49:05.940Z,59.93
2022-12-08T11:51:38.758Z,60.20
2022-12-08T11:54:17.351Z,60.23
2022-12-08T11:56:49.392Z,60.08
2022-12-08T11:59:28.335Z,60.30
2022-12-08T12:01:57.091Z,60.70
2022-12-08T12:04:31.037Z,60.67
2022-12-08T12:07:40.680Z,60.91
2022-12-08T12:10:28.032Z,60.76
2022-12-08T12:13:17.055Z,59.14
2022-12-08T12:16:40.536Z,60.10
2022-12-08T12:19:15.411Z,60.58
2022-12-08T12:21:46.953Z,60.19
2022-12-08T12:24:25.454Z,60.31
2022-12-08T12:27:00.003Z,59.85
2022-12-08T12:29:31.520Z,60.18
2022-12-08T12:32:04.970Z,60.20
2022-12-08T12:34:36.636Z,60.09
2022-12-08T12:37:10.471Z,59.98
2022-12-08T12:39:51.631Z,59.82
2022-12-08T12:42:42.976Z,59.82
2022-12-08T12:45:28.489Z,59.90
2022-12-08T12:48:22.768Z,59.20
2022-12-08T12:50:51.155Z,59.86
2022-12-08T12:53:51.958Z,59.31
2022-12-08T12:56:48.780Z,59.54
2022-12-08T12:59:33.563Z,59.48
2022-12-08T13:02:02.789Z,59.93
2022-12-08T13:04:37.359Z,59.88
2022-12-08T13:07:06.846Z,60.10
2022-12-08T13:09:39.318Z,59.99
2022-12-08T13:12:13.045Z,60.00
2022-12-08T13:14:47.198Z,60.07
2022-12-08T13:17:24.491Z,59.95
2022-12-08T13:19:58.464Z,59.97
2022-12-08T13:23:03.650Z,59.85
2022-12-08T13:26:09.703Z,59.94
2022-12-08T13:29:16.406Z,59.58
2022-12-08T13:31:50.942Z,60.08
2022-12-08T13:34:31.455Z,59.89
2022-12-08T13:37:22.060Z,59.48
2022-12-08T13:39:55.198Z,59.78
2022-12-08T13:42:31.242Z,59.63
2022-12-08T13:45:39.631Z,59.81
2022-12-08T13:48:30.210Z,59.71
2022-12-08T13:52:59.993Z,59.69
2022-12-08T13:57:03.029Z,59.11
2022-12-08T13:59:31.301Z,59.62
2022-12-08T14:02:04.171Z,60.01
2022-12-08T14:05:17.011Z,60.29
2022-12-08T14:07:21.859Z,60.02
2022-12-08T14:09:52.892Z,59.75
2022-12-08T14:12:23.688Z,60.00
2022-12-08T14:15:03.292Z,59.97
2022-12-08T14:17:32.430Z,60.41
2022-12-08T14:20:02.594Z,60.30
2022-12-08T14:22:35.852Z,60.18
2022-12-08T14:25:08.579Z,60.41
2022-12-08T14:27:38.758Z,59.93
2022-12-08T14:30:09.312Z,60.22
2022-12-08T14:32:44.349Z,60.25
2022-12-08T14:35:23.973Z,60.26
2022-12-08T14:37:55.610Z,59.98
2022-12-08T14:40:29.248Z,60.46
2022-12-08T14:43:13.827Z,60.40
2022-12-08T14:45:49.237Z,60.51
2022-12-08T14:48:25.589Z,60.57
2022-12-08T14:51:09.001Z,60.42
2022-12-08T14:53:41.001Z,60.57
2022-12-08T14:56:20.240Z,60.67
2022-12-08T14:58:50.467Z,59.63
2022-12-08T15:01:23.703Z,59.96
2022-12-08T15:03:52.556Z,59.89
2022-12-08T15:06:23.495Z,60.26
2022-12-08T15:08:58.884Z,59.82
2022-12-08T15:11:37.192Z,59.98
2022-12-08T15:14:05.664Z,60.25
2022-12-08T15:16:40.760Z,59.95
2022-12-08T15:19:27.841Z,60.19
2022-12-08T15:21:58.267Z,60.40
2022-12-08T15:24:29.517Z,60.44
2022-12-08T15:26:59.508Z,60.92
2022-12-08T15:29:31.150Z,60.78
2022-12-08T15:32:01.616Z,60.73
2022-12-08T15:34:31.717Z,61.26
2022-12-08T15:37:00.127Z,61.54
2022-12-08T15:39:37.440Z,61.17
2022-12-08T15:42:14.042Z,61.41
2022-12-08T15:44:42.850Z,61.80
2022-12-08T15:47:18.036Z,61.89
2022-12-08T15:49:47.312Z,61.94
2022-12-08T15:52:17.750Z,62.02
2022-12-08T15:54:46.883Z,62.15
2022-12-08T16:00:51.842Z,61.46
2022-12-08T16:07:26.840Z,61.53
2022-12-08T16:09:12.453Z,62.30
2022-12-08T16:12:06.573Z,62.29
2022-12-08T16:17:27.606Z,62.17
2022-12-08T16:19:56.589Z,62.13
2022-12-08T16:25:20.412Z,61.69
2022-12-08T16:28:23.612Z,62.02
2022-12-08T16:30:41.251Z,62.15
2022-12-08T16:33:10.943Z,62.33
2022-12-08T16:35:39.437Z,62.21
2022-12-08T16:38:07.753Z,62.40
2022-12-08T16:40:56.988Z,62.68
2022-12-08T16:43:24.348Z,62.79
2022-12-08T16:45:54.112Z,62.74
2022-12-08T16:48:22.976Z,62.94
2022-12-08T16:50:51.425Z,62.82
2022-12-08T16:53:19.743Z,62.72
2022-12-08T16:55:48.990Z,62.88
2022-12-08T16:58:18.641Z,63.20
2022-12-08T17:00:47.746Z,63.30
2022-12-08T17:03:18.602Z,63.20
2022-12-08T17:05:47.082Z,62.96
2022-12-08T17:08:15.436Z,63.17
2022-12-08T17:10:44.050Z,63.27
2022-12-08T17:13:13.239Z,63.06
2022-12-08T17:15:41.733Z,62.91
2022-12-08T17:18:10.096Z,62.75
2022-12-08T17:20:41.154Z,62.77
2022-12-08T17:23:09.604Z,62.64
2022-12-08T17:25:38.274Z,62.76
2022-12-08T17:28:06.858Z,62.72
2022-12-08T17:30:35.285Z,62.65
2022-12-08T17:33:03.638Z,62.80
2022-12-08T17:35:32.042Z,62.73
2022-12-08T17:38:01.799Z,62.78
2022-12-08T17:40:30.171Z,62.92
2022-12-08T17:42:58.541Z,62.80
2022-12-08T17:45:26.863Z,62.88
2022-12-08T17:47:55.490Z,62.82
2022-12-08T17:50:24.073Z,62.66
2022-12-08T17:52:52.909Z,62.61
2022-12-08T17:55:22.840Z,62.13
2022-12-08T17:57:51.234Z,62.29
2022-12-08T18:00:20.649Z,62.70
2022-12-08T18:02:49.165Z,62.92
2022-12-08T18:05:17.679Z,62.94
2022-12-08T18:07:46.078Z,62.99
2022-12-08T18:10:14.528Z,62.87
2022-12-08T18:12:45.320Z,62.74
2022-12-08T18:15:17.637Z,63.01
2022-12-08T18:17:46.035Z,63.01
2022-12-08T18:20:15.813Z,62.99
2022-12-08T18:22:44.196Z,63.03
2022-12-08T18:25:13.511Z,62.93
2022-12-08T18:27:44.247Z,62.87
2022-12-08T18:30:17.324Z,62.72
2022-12-08T18:32:45.708Z,62.84
2022-12-08T18:35:14.434Z,62.85
2022-12-08T18:37:44.374Z,62.74
2022-12-08T18:40:13.898Z,62.66
2022-12-08T18:42:44.204Z,62.57
2022-12-08T18:45:15.705Z,62.64
2022-12-08T18:47:46.016Z,62.53
2022-12-08T18:50:14.697Z,62.67
2022-12-08T18:52:43.171Z,62.72
2022-12-08T18:55:11.771Z,62.74
2022-12-08T18:57:42.792Z,62.61
2022-12-08T19:00:17.044Z,62.66
2022-12-08T19:02:46.286Z,62.35
2022-12-08T19:05:16.015Z,62.47
2022-12-08T19:07:45.962Z,62.54
2022-12-08T19:10:14.464Z,61.77
2022-12-08T19:12:43.196Z,62.17
2022-12-08T19:15:13.657Z,62.14
2022-12-08T19:17:42.061Z,62.34
2022-12-08T19:20:11.872Z,62.10
2022-12-08T19:22:41.560Z,62.05
2022-12-08T19:25:13.193Z,62.02
2022-12-08T19:27:42.929Z,61.90
2022-12-08T19:30:15.465Z,62.13
2022-12-08T19:32:45.190Z,61.84
2022-12-08T19:35:15.587Z,61.83
2022-12-08T19:37:45.167Z,62.08
2022-12-08T19:40:32.737Z,61.75
2022-12-08T19:43:19.303Z,62.13
2022-12-08T19:45:50.875Z,62.17
2022-12-08T19:48:21.115Z,62.33
2022-12-08T19:50:51.130Z,62.28
2022-12-08T19:53:21.497Z,61.94
2022-12-08T19:55:51.303Z,61.72
2022-12-08T19:58:21.398Z,61.76
2022-12-08T20:00:53.593Z,61.69
2022-12-08T20:03:24.338Z,61.67
2022-12-08T20:05:55.080Z,61.38
2022-12-08T20:08:24.842Z,61.32
2022-12-08T20:10:56.616Z,60.71
2022-12-08T20:13:46.604Z,60.54
2022-12-08T20:16:19.062Z,60.82
2022-12-08T20:18:50.581Z,60.97
2022-12-08T20:21:20.538Z,60.63
2022-12-08T20:23:50.600Z,60.76
2022-12-08T20:26:22.224Z,60.85
2022-12-08T20:28:53.673Z,61.36
2022-12-08T20:31:26.624Z,61.43
2022-12-08T20:33:56.473Z,61.59
2022-12-08T20:36:25.991Z,61.51
2022-12-08T20:38:56.349Z,61.34
2022-12-08T20:41:24.927Z,61.36
2022-12-08T20:43:54.134Z,61.40
2022-12-08T20:46:24.574Z,61.61
2022-12-08T20:48:53.654Z,61.53
2022-12-08T20:51:25.679Z,61.72
2022-12-08T20:53:56.951Z,61.21
2022-12-08T20:56:26.384Z,61.37
2022-12-08T20:58:55.735Z,61.47
2022-12-08T21:01:26.808Z,61.52
2022-12-08T21:03:56.190Z,61.46
2022-12-08T21:06:27.035Z,61.22
2022-12-08T21:08:55.946Z,61.29
2022-12-08T21:11:24.494Z,61.19
2022-12-08T21:13:53.420Z,61.22
2022-12-08T21:16:21.847Z,61.07
2022-12-08T21:18:52.322Z,60.79
2022-12-08T21:21:20.829Z,60.89
2022-12-08T21:23:49.597Z,61.06
2022-12-08T21:26:19.586Z,60.87
2022-12-08T21:28:49.224Z,60.71
2022-12-08T21:31:21.664Z,59.86
2022-12-08T21:33:51.652Z,60.56
2022-12-08T21:36:22.939Z,60.73
2022-12-08T21:38:52.254Z,60.63
2022-12-08T21:41:42.079Z,60.24
2022-12-08T21:44:13.473Z,60.30
2022-12-08T21:46:42.308Z,60.29
2022-12-08T21:49:12.641Z,60.41
2022-12-08T21:51:42.541Z,60.64
2022-12-08T21:54:18.354Z,60.70
2022-12-08T21:56:49.077Z,60.75
2022-12-08T21:59:18.128Z,60.05
2022-12-08T22:01:46.842Z,60.27
2022-12-08T22:04:21.807Z,60.40
2022-12-08T22:06:50.452Z,60.51
2022-12-08T22:09:19.988Z,60.26
2022-12-08T22:11:48.580Z,60.09
2022-12-08T22:14:17.113Z,60.28
2022-12-08T22:16:45.920Z,60.32
2022-12-08T22:19:14.336Z,60.45
2022-12-08T22:21:44.723Z,60.51
2022-12-08T22:24:13.113Z,60.79
2022-12-08T22:26:41.411Z,60.69
2022-12-08T22:29:10.341Z,60.63
2022-12-08T22:31:38.793Z,60.36
2022-12-08T22:34:07.489Z,60.64
2022-12-08T22:36:36.390Z,60.55
2022-12-08T22:39:06.643Z,60.71
2022-12-08T22:41:35.100Z,60.36
2022-12-08T22:44:06.689Z,60.43
2022-12-08T22:46:35.894Z,60.41
2022-12-08T22:49:05.176Z,60.50
2022-12-08T22:51:36.357Z,60.51
2022-12-08T22:54:06.850Z,60.58
2022-12-08T22:56:35.520Z,60.71
2022-12-08T22:59:04.033Z,60.68
2022-12-08T23:01:34.143Z,60.56
2022-12-08T23:04:03.913Z,60.67
2022-12-08T23:06:33.800Z,60.65
2022-12-08T23:09:02.368Z,60.68
2022-12-08T23:11:32.789Z,60.71
2022-12-08T23:14:02.099Z,60.74
2022-12-08T23:16:33.591Z,60.84
2022-12-08T23:19:02.288Z,60.63
2022-12-08T23:21:31.142Z,60.74
2022-12-08T23:24:01.160Z,60.76
2022-12-08T23:26:33.266Z,61.21
2022-12-08T23:29:02.163Z,61.15
2022-12-08T23:31:30.832Z,61.42
2022-12-08T23:33:59.552Z,61.54
2022-12-08T23:36:28.101Z,61.24
2022-12-08T23:38:57.190Z,61.41
2022-12-08T23:41:25.479Z,61.31
2022-12-08T23:43:55.448Z,61.30
2022-12-08T23:46:24.727Z,61.49
2022-12-08T23:48:53.779Z,61.18
2022-12-08T23:51:22.841Z,61.65
2022-12-08T23:53:51.411Z,61.75
2022-12-08T23:56:23.178Z,61.83
2022-12-08T23:58:55.823Z,61.78
